createdAt,value
2023-03-16T00:01:43.033Z,7.20
2023-03-16T00:04:16.217Z,6.07
2023-03-16T00:06:49.173Z,6.13
2023-03-16T00:09:22.045Z,7.72
2023-03-16T00:11:56.212Z,8.18
2023-03-16T00:14:28.989Z,7.82
2023-03-16T00:17:02.194Z,7.25
2023-03-16T00:19:35.392Z,5.22
2023-03-16T00:22:08.429Z,5.10
2023-03-16T00:24:43.162Z,4.80
2023-03-16T00:27:18.336Z,5.30
2023-03-16T00:29:55.845Z,5.85
2023-03-16T00:32:32.017Z,5.03
2023-03-16T00:35:09.541Z,5.57
2023-03-16T00:37:43.846Z,7.22
2023-03-16T00:40:17.504Z,6.95
2023-03-16T00:42:51.766Z,7.35
2023-03-16T00:45:25.337Z,7.22
2023-03-16T00:47:58.022Z,9.90
2023-03-16T00:50:31.421Z,11.10
2023-03-16T00:53:04.233Z,9.95
2023-03-16T00:55:37.110Z,9.00
2023-03-16T00:58:15.111Z,10.90
2023-03-16T01:00:49.662Z,9.57
2023-03-16T01:03:22.689Z,9.02
2023-03-16T01:05:59.834Z,8.13
2023-03-16T01:08:33.074Z,8.45
2023-03-16T01:11:10.392Z,7.88
2023-03-16T01:13:47.178Z,8.88
2023-03-16T01:16:20.280Z,7.68
2023-03-16T01:18:56.958Z,7.07
2023-03-16T01:21:30.351Z,7.35
2023-03-16T01:24:04.260Z,6.85
2023-03-16T01:26:37.630Z,7.53
2023-03-16T01:29:12.720Z,7.57
2023-03-16T01:31:46.059Z,6.55
2023-03-16T01:34:19.879Z,8.10
2023-03-16T01:36:54.361Z,8.55
2023-03-16T01:39:33.667Z,6.85
2023-03-16T01:42:06.746Z,7.57
2023-03-16T01:44:55.800Z,7.40
2023-03-16T01:47:37.979Z,7.78
2023-03-16T01:50:12.247Z,7.57
2023-03-16T01:52:46.718Z,7.97
2023-03-16T01:55:20.029Z,6.53
2023-03-16T01:57:53.426Z,8.00
2023-03-16T02:00:32.489Z,8.70
2023-03-16T02:03:22.703Z,8.32
2023-03-16T02:06:05.676Z,7.65
2023-03-16T02:08:42.757Z,6.47
2023-03-16T02:11:18.317Z,7.53
2023-03-16T02:14:10.638Z,8.30
2023-03-16T02:16:44.957Z,7.93
2023-03-16T02:19:27.575Z,7.75
2023-03-16T02:22:03.689Z,8.20
2023-03-16T02:24:38.115Z,8.48
2023-03-16T02:27:14.074Z,7.90
2023-03-16T02:30:01.414Z,7.45
2023-03-16T02:32:40.555Z,6.85
2023-03-16T02:35:14.248Z,7.00
2023-03-16T02:37:47.745Z,7.05
2023-03-16T02:40:26.886Z,5.97
2023-03-16T02:43:05.020Z,6.45
2023-03-16T02:45:46.297Z,7.57
2023-03-16T02:48:24.177Z,6.32
2023-03-16T02:50:57.225Z,6.72
2023-03-16T02:53:32.760Z,6.60
2023-03-16T02:56:08.024Z,7.75
2023-03-16T02:58:42.833Z,6.60
2023-03-16T03:01:21.758Z,7.85
2023-03-16T03:03:55.067Z,7.75
2023-03-16T03:06:28.249Z,7.45
2023-03-16T03:09:02.101Z,6.97
2023-03-16T03:11:35.647Z,6.82
2023-03-16T03:14:09.439Z,7.50
2023-03-16T03:16:47.178Z,7.55
2023-03-16T03:19:23.155Z,6.78
2023-03-16T03:21:56.969Z,7.43
2023-03-16T03:24:30.177Z,8.10
2023-03-16T03:27:06.062Z,12.18
2023-03-16T03:29:41.783Z,10.10
2023-03-16T03:32:16.282Z,8.60
2023-03-16T03:34:49.354Z,9.25
2023-03-16T03:37:22.708Z,8.52
2023-03-16T03:39:55.629Z,7.85
2023-03-16T03:42:28.938Z,7.03
2023-03-16T03:45:02.118Z,7.85
2023-03-16T03:47:36.438Z,8.05
2023-03-16T03:50:13.804Z,7.10
2023-03-16T03:52:58.449Z,8.15
2023-03-16T03:55:33.764Z,7.85
2023-03-16T03:58:07.546Z,7.95
2023-03-16T04:00:41.631Z,8.10
2023-03-16T04:03:17.915Z,7.57
2023-03-16T04:05:51.938Z,7.95
2023-03-16T04:08:25.196Z,7.35
2023-03-16T04:10:58.503Z,7.60
2023-03-16T04:13:31.583Z,6.95
2023-03-16T04:16:04.853Z,7.65
2023-03-16T04:18:48.944Z,7.15
2023-03-16T04:21:22.506Z,8.23
2023-03-16T04:23:55.715Z,8.30
2023-03-16T04:26:36.399Z,8.48
2023-03-16T04:29:10.768Z,6.80
2023-03-16T04:31:43.928Z,7.05
2023-03-16T04:34:18.421Z,7.10
2023-03-16T04:36:52.071Z,7.07
2023-03-16T04:39:25.378Z,7.63
2023-03-16T04:42:01.900Z,7.07
2023-03-16T04:44:35.244Z,7.38
2023-03-16T04:47:08.395Z,8.15
2023-03-16T04:49:46.287Z,7.82
2023-03-16T04:52:19.372Z,8.30
2023-03-16T04:54:52.880Z,8.00
2023-03-16T04:57:26.451Z,6.65
2023-03-16T05:00:00.409Z,6.82
2023-03-16T05:02:43.610Z,7.30
2023-03-16T05:05:19.122Z,7.32
2023-03-16T05:07:52.399Z,7.43
2023-03-16T05:10:26.259Z,7.35
2023-03-16T05:12:59.661Z,7.43
2023-03-16T05:15:34.433Z,7.10
2023-03-16T05:20:57.895Z,7.57
2023-03-16T05:23:37.578Z,7.82
2023-03-16T05:26:10.621Z,8.43
2023-03-16T05:28:44.612Z,8.10
2023-03-16T05:31:20.677Z,7.78
2023-03-16T05:33:58.031Z,9.25
2023-03-16T05:36:32.646Z,8.65
2023-03-16T05:39:12.335Z,9.55
2023-03-16T05:41:49.542Z,9.05
2023-03-16T05:44:41.225Z,9.15
2023-03-16T05:47:20.143Z,9.82
2023-03-16T05:49:58.580Z,9.80
2023-03-16T05:52:44.669Z,9.57
2023-03-16T05:55:24.866Z,10.82
2023-03-16T05:58:05.150Z,8.52
2023-03-16T06:00:40.495Z,9.15
2023-03-16T06:03:27.700Z,8.35
2023-03-16T06:06:02.718Z,8.25
2023-03-16T06:08:42.022Z,8.70
2023-03-16T06:11:18.321Z,9.05
2023-03-16T06:13:51.957Z,9.13
2023-03-16T06:16:25.590Z,8.57
2023-03-16T06:18:59.869Z,9.85
2023-03-16T06:21:34.811Z,10.13
2023-03-16T06:24:17.859Z,9.73
2023-03-16T06:26:51.273Z,9.80
2023-03-16T06:29:26.082Z,9.57
2023-03-16T06:31:59.314Z,10.23
2023-03-16T06:34:32.506Z,10.93
2023-03-16T06:37:06.266Z,10.60
2023-03-16T06:39:40.811Z,11.05
2023-03-16T06:42:14.023Z,11.43
2023-03-16T06:44:47.206Z,11.25
2023-03-16T06:47:20.397Z,12.23
2023-03-16T06:49:55.253Z,12.02
2023-03-16T06:52:31.766Z,12.75
2023-03-16T06:55:07.642Z,13.70
2023-03-16T06:57:43.705Z,10.80
2023-03-16T07:00:18.786Z,12.48
2023-03-16T07:02:51.787Z,11.32
2023-03-16T07:05:25.966Z,11.07
2023-03-16T07:07:59.230Z,11.45
2023-03-16T07:10:34.399Z,11.13
2023-03-16T07:13:07.577Z,10.48
2023-03-16T07:15:40.705Z,10.27
2023-03-16T07:18:13.608Z,12.23
2023-03-16T07:20:47.040Z,10.27
2023-03-16T07:23:20.763Z,9.27
2023-03-16T07:25:55.540Z,11.60
2023-03-16T07:28:29.716Z,11.65
2023-03-16T07:31:05.354Z,11.48
2023-03-16T07:33:43.918Z,11.30
2023-03-16T07:36:21.669Z,11.32
2023-03-16T07:39:01.379Z,9.18
2023-03-16T07:41:35.741Z,9.43
2023-03-16T07:44:21.721Z,9.43
2023-03-16T07:46:55.484Z,9.02
2023-03-16T07:49:32.017Z,8.10
2023-03-16T07:52:06.688Z,9.73
2023-03-16T07:54:45.353Z,9.65
2023-03-16T07:57:21.395Z,9.23
2023-03-16T07:59:55.295Z,9.90
2023-03-16T08:02:28.423Z,9.10
2023-03-16T08:05:01.713Z,9.73
2023-03-16T08:07:35.017Z,7.63
2023-03-16T08:10:15.287Z,8.27
2023-03-16T08:12:58.909Z,8.20
2023-03-16T08:15:34.179Z,7.38
2023-03-16T08:18:14.628Z,7.35
2023-03-16T08:20:50.860Z,7.35
2023-03-16T08:23:24.229Z,6.90
2023-03-16T08:25:58.745Z,6.95
2023-03-16T08:28:34.453Z,7.93
2023-03-16T08:31:12.396Z,7.45
2023-03-16T08:34:05.518Z,6.97
2023-03-16T08:36:44.061Z,6.90
2023-03-16T08:39:18.970Z,6.75
2023-03-16T08:41:54.019Z,6.82
2023-03-16T08:44:37.297Z,7.80
2023-03-16T08:47:10.803Z,7.05
2023-03-16T08:49:44.787Z,7.00
2023-03-16T08:52:20.954Z,6.32
2023-03-16T08:55:02.902Z,6.68
2023-03-16T08:57:36.257Z,5.85
2023-03-16T09:00:14.313Z,6.35
2023-03-16T09:02:47.957Z,6.68
2023-03-16T09:05:21.060Z,6.00
2023-03-16T09:07:54.976Z,5.70
2023-03-16T09:10:28.126Z,5.88
2023-03-16T09:13:01.433Z,5.97
2023-03-16T09:15:36.491Z,6.55
2023-03-16T09:18:10.605Z,6.30
2023-03-16T09:20:43.944Z,5.75
2023-03-16T09:23:17.142Z,5.80
2023-03-16T09:25:51.452Z,5.32
2023-03-16T09:28:25.448Z,5.70
2023-03-16T09:31:00.392Z,5.53
2023-03-16T09:33:34.067Z,5.90
2023-03-16T09:36:07.359Z,5.35
2023-03-16T09:38:40.176Z,5.18
2023-03-16T09:41:32.251Z,5.35
2023-03-16T09:44:17.411Z,5.30
2023-03-16T09:46:52.905Z,6.47
2023-03-16T09:49:30.616Z,5.40
2023-03-16T09:52:17.124Z,5.68
2023-03-16T09:54:56.805Z,6.45
2023-03-16T09:57:34.834Z,5.40
2023-03-16T10:00:17.504Z,5.00
2023-03-16T10:03:04.237Z,4.97
2023-03-16T10:05:39.645Z,5.53
2023-03-16T10:08:16.822Z,4.53
2023-03-16T10:11:19.344Z,4.88
2023-03-16T10:13:57.302Z,5.13
2023-03-16T10:16:37.476Z,5.25
2023-03-16T10:19:15.510Z,4.15
2023-03-16T10:21:50.825Z,4.10
2023-03-16T10:24:38.367Z,4.10
2023-03-16T10:27:20.432Z,4.72
2023-03-16T10:29:53.716Z,4.60
2023-03-16T10:32:29.531Z,4.07
2023-03-16T10:35:15.959Z,4.55
2023-03-16T10:37:50.358Z,3.78
2023-03-16T10:40:23.450Z,4.38
2023-03-16T10:42:56.924Z,3.90
2023-03-16T10:45:32.276Z,4.25
2023-03-16T10:48:10.354Z,3.85
2023-03-16T10:50:45.485Z,3.10
2023-03-16T10:53:22.753Z,3.05
2023-03-16T10:55:59.987Z,3.80
2023-03-16T10:58:35.730Z,3.67
2023-03-16T11:01:12.157Z,3.53
2023-03-16T11:03:51.404Z,4.18
2023-03-16T11:06:30.927Z,3.22
2023-03-16T11:09:08.934Z,3.10
2023-03-16T11:11:49.390Z,3.30
2023-03-16T11:17:04.458Z,2.95
2023-03-16T11:22:16.138Z,3.60
2023-03-16T11:24:54.170Z,4.82
2023-03-16T11:27:35.131Z,3.42
2023-03-16T11:30:15.779Z,3.50
2023-03-16T11:32:53.261Z,3.30
2023-03-16T11:35:39.976Z,3.40
2023-03-16T11:38:17.892Z,3.40
2023-03-16T11:40:58.338Z,3.60
2023-03-16T11:46:27.489Z,3.38
2023-03-16T11:49:24.622Z,3.42
2023-03-16T11:52:06.585Z,3.75
2023-03-16T11:54:55.282Z,3.35
2023-03-16T11:57:43.423Z,3.80
2023-03-16T12:00:32.305Z,2.58
2023-03-16T12:03:43.669Z,3.15
2023-03-16T12:06:27.660Z,2.60
2023-03-16T12:09:29.116Z,2.78
2023-03-16T12:12:11.169Z,2.67
2023-03-16T12:14:52.213Z,2.33
2023-03-16T12:17:28.806Z,2.67
2023-03-16T12:20:05.887Z,3.38
2023-03-16T12:22:43.419Z,2.67
2023-03-16T12:25:22.319Z,2.70
2023-03-16T12:28:01.062Z,2.83
2023-03-16T12:30:43.971Z,2.85
2023-03-16T12:33:28.384Z,2.70
2023-03-16T12:36:08.282Z,2.53
2023-03-16T12:38:49.862Z,2.90
2023-03-16T12:41:31.321Z,2.65
2023-03-16T12:44:14.218Z,3.03
2023-03-16T12:46:57.843Z,2.25
2023-03-16T12:49:34.328Z,3.05
2023-03-16T12:52:11.282Z,2.92
2023-03-16T12:54:53.031Z,2.33
2023-03-16T12:57:27.209Z,2.60
2023-03-16T13:00:09.036Z,2.33
2023-03-16T13:02:46.063Z,3.25
2023-03-16T13:05:30.256Z,2.83
2023-03-16T13:08:10.625Z,2.67
2023-03-16T13:10:44.663Z,2.50
2023-03-16T13:13:25.497Z,2.25
2023-03-16T13:16:09.539Z,2.90
2023-03-16T13:18:45.208Z,2.95
2023-03-16T13:21:21.751Z,2.88
2023-03-16T13:23:58.184Z,2.40
2023-03-16T13:26:41.167Z,2.53
2023-03-16T13:29:23.262Z,2.10
2023-03-16T13:32:00.491Z,2.53
2023-03-16T13:34:38.424Z,2.80
2023-03-16T13:37:15.556Z,2.20
2023-03-16T13:39:55.205Z,2.63
2023-03-16T13:42:31.501Z,2.47
2023-03-16T13:45:16.009Z,2.50
2023-03-16T13:47:50.971Z,2.50
2023-03-16T13:50:24.246Z,2.65
2023-03-16T13:53:02.969Z,2.58
2023-03-16T13:55:39.246Z,2.95
2023-03-16T13:58:22.691Z,2.20
2023-03-16T14:01:01.677Z,2.80
2023-03-16T14:03:38.079Z,2.95
2023-03-16T14:06:22.985Z,2.60
2023-03-16T14:09:01.472Z,3.00
2023-03-16T14:11:35.063Z,2.40
2023-03-16T14:14:16.785Z,2.67
2023-03-16T14:16:49.994Z,2.60
2023-03-16T14:19:35.911Z,2.35
2023-03-16T14:22:15.148Z,2.35
2023-03-16T14:24:54.888Z,2.15
2023-03-16T14:27:33.035Z,2.55
2023-03-16T14:30:18.194Z,2.65
2023-03-16T14:32:59.795Z,2.88
2023-03-16T14:35:42.324Z,2.05
2023-03-16T14:38:22.664Z,2.10
2023-03-16T14:40:57.881Z,2.10
2023-03-16T14:43:34.087Z,2.05
2023-03-16T14:46:08.458Z,1.67
2023-03-16T14:48:41.560Z,2.13
2023-03-16T14:51:16.560Z,2.20
2023-03-16T14:53:49.443Z,1.85
2023-03-16T14:56:23.250Z,2.47
2023-03-16T14:58:56.326Z,2.50
2023-03-16T15:01:29.332Z,2.15
2023-03-16T15:04:02.891Z,1.90
2023-03-16T15:06:37.352Z,1.92
2023-03-16T15:09:25.776Z,2.22
2023-03-16T15:11:58.895Z,2.20
2023-03-16T15:14:49.599Z,2.13
2023-03-16T15:17:23.268Z,2.15
2023-03-16T15:19:57.325Z,2.08
2023-03-16T15:22:33.645Z,2.25
2023-03-16T15:25:20.629Z,2.13
2023-03-16T15:27:55.124Z,2.20
2023-03-16T15:30:30.717Z,2.15
2023-03-16T15:33:04.250Z,1.85
2023-03-16T15:35:37.797Z,2.67
2023-03-16T15:38:16.682Z,2.30
2023-03-16T15:40:51.406Z,1.75
2023-03-16T15:43:27.126Z,2.05
2023-03-16T15:46:00.996Z,2.55
2023-03-16T15:48:34.270Z,1.77
2023-03-16T15:51:09.947Z,2.20
2023-03-16T15:53:49.992Z,2.15
2023-03-16T15:56:30.116Z,2.17
2023-03-16T15:59:09.728Z,2.17
2023-03-16T16:01:46.493Z,2.42
2023-03-16T16:04:21.844Z,2.20
2023-03-16T16:06:55.556Z,2.10
2023-03-16T16:09:31.626Z,1.80
2023-03-16T16:12:04.844Z,2.17
2023-03-16T16:14:38.015Z,2.13
2023-03-16T16:17:13.547Z,1.92
2023-03-16T16:19:46.496Z,2.40
2023-03-16T16:22:19.618Z,2.60
2023-03-16T16:24:54.302Z,3.22
2023-03-16T16:27:27.135Z,3.78
2023-03-16T16:30:00.134Z,3.03
2023-03-16T16:32:33.097Z,2.85
2023-03-16T16:35:14.288Z,2.85
2023-03-16T16:37:47.529Z,2.50
2023-03-16T16:40:25.872Z,3.22
2023-03-16T16:43:05.968Z,3.17
2023-03-16T16:45:39.475Z,3.10
2023-03-16T16:48:29.803Z,3.20
2023-03-16T16:51:02.685Z,3.65
2023-03-16T16:53:35.929Z,3.83
2023-03-16T16:56:15.589Z,4.57
2023-03-16T16:58:49.415Z,6.82
2023-03-16T17:01:27.676Z,14.95
2023-03-16T17:04:01.298Z,17.23
2023-03-16T17:06:34.367Z,10.77
2023-03-16T17:09:10.560Z,11.15
2023-03-16T17:11:46.827Z,8.55
2023-03-16T17:14:22.542Z,6.95
2023-03-16T17:16:55.651Z,5.80
2023-03-16T17:19:29.494Z,4.78
2023-03-16T17:22:28.328Z,4.85
2023-03-16T17:25:01.767Z,12.40
2023-03-16T17:27:36.444Z,5.95
2023-03-16T17:30:22.164Z,6.80
2023-03-16T17:32:57.985Z,6.53
2023-03-16T17:35:31.360Z,6.22
2023-03-16T17:38:04.808Z,6.30
2023-03-16T17:40:38.152Z,5.63
2023-03-16T17:43:16.065Z,4.82
2023-03-16T17:45:50.577Z,4.88
2023-03-16T17:48:25.756Z,4.10
2023-03-16T17:50:58.610Z,4.00
2023-03-16T17:53:31.512Z,5.05
2023-03-16T17:56:05.509Z,4.80
2023-03-16T17:58:40.469Z,5.80
2023-03-16T18:01:15.736Z,5.55
2023-03-16T18:03:48.892Z,6.00
2023-03-16T18:06:25.675Z,4.88
2023-03-16T18:08:59.310Z,4.50
2023-03-16T18:11:35.598Z,4.13
2023-03-16T18:14:22.524Z,3.95
2023-03-16T18:16:55.974Z,4.72
2023-03-16T18:19:33.870Z,5.10
2023-03-16T18:22:13.814Z,3.67
2023-03-16T18:24:54.630Z,3.63
2023-03-16T18:27:28.333Z,4.25
2023-03-16T18:30:02.505Z,4.50
2023-03-16T18:32:35.840Z,4.90
2023-03-16T18:35:16.838Z,5.95
2023-03-16T18:37:50.065Z,7.78
2023-03-16T18:40:24.697Z,7.95
2023-03-16T18:42:57.544Z,8.25
2023-03-16T18:45:32.468Z,7.85
2023-03-16T18:48:05.991Z,7.50
2023-03-16T18:50:43.626Z,9.25
2023-03-16T18:53:17.910Z,8.73
2023-03-16T18:55:51.055Z,7.53
2023-03-16T18:58:25.515Z,7.32
2023-03-16T19:01:01.635Z,7.03
2023-03-16T19:03:43.715Z,6.60
2023-03-16T19:06:21.838Z,6.60
2023-03-16T19:08:55.428Z,6.90
2023-03-16T19:11:28.465Z,7.38
2023-03-16T19:14:01.673Z,6.53
2023-03-16T19:16:36.619Z,6.45
2023-03-16T19:19:09.605Z,6.30
2023-03-16T19:21:43.773Z,6.97
2023-03-16T19:24:23.843Z,6.45
2023-03-16T19:26:57.035Z,6.65
2023-03-16T19:29:32.701Z,8.00
2023-03-16T19:32:07.387Z,6.32
2023-03-16T19:34:40.411Z,7.78
2023-03-16T19:37:14.877Z,7.43
2023-03-16T19:39:48.130Z,8.27
2023-03-16T19:42:23.570Z,10.02
2023-03-16T19:44:57.224Z,9.10
2023-03-16T19:47:33.989Z,10.15
2023-03-16T19:50:14.714Z,9.70
2023-03-16T19:52:48.111Z,11.25
2023-03-16T19:55:23.422Z,10.10
2023-03-16T19:58:01.521Z,7.38
2023-03-16T20:00:36.110Z,6.65
2023-03-16T20:03:13.465Z,6.78
2023-03-16T20:05:46.319Z,6.40
2023-03-16T20:08:25.009Z,6.22
2023-03-16T20:11:02.124Z,8.05
2023-03-16T20:13:35.507Z,7.38
2023-03-16T20:16:10.841Z,9.00
2023-03-16T20:18:49.986Z,7.60
2023-03-16T20:21:23.276Z,7.78
2023-03-16T20:23:57.333Z,7.05
2023-03-16T20:26:33.182Z,6.28
2023-03-16T20:29:18.926Z,6.78
2023-03-16T20:31:52.577Z,6.90
2023-03-16T20:34:28.828Z,6.00
2023-03-16T20:37:02.626Z,6.18
2023-03-16T20:39:38.515Z,6.30
2023-03-16T20:42:18.434Z,6.22
2023-03-16T20:44:51.630Z,5.63
2023-03-16T20:47:25.487Z,6.32
2023-03-16T20:50:00.254Z,6.32
2023-03-16T20:52:33.324Z,7.30
2023-03-16T20:55:07.089Z,6.32
2023-03-16T20:57:42.705Z,6.53
2023-03-16T21:00:26.668Z,6.80
2023-03-16T21:03:00.292Z,6.40
2023-03-16T21:05:34.469Z,6.55
2023-03-16T21:08:08.251Z,6.15
2023-03-16T21:10:41.989Z,6.00
2023-03-16T21:13:19.401Z,6.53
2023-03-16T21:15:53.045Z,6.78
2023-03-16T21:18:25.984Z,6.47
2023-03-16T21:21:00.286Z,6.28
2023-03-16T21:23:33.282Z,5.97
2023-03-16T21:26:06.965Z,6.22
2023-03-16T21:28:40.087Z,5.82
2023-03-16T21:31:19.745Z,6.70
2023-03-16T21:33:55.731Z,6.85
2023-03-16T21:36:30.100Z,7.93
2023-03-16T21:39:03.871Z,8.02
2023-03-16T21:41:37.957Z,8.93
2023-03-16T21:44:10.851Z,8.63
2023-03-16T21:46:43.669Z,7.65
2023-03-16T21:49:16.997Z,6.60
2023-03-16T21:51:52.288Z,6.65
2023-03-16T21:54:25.836Z,6.05
2023-03-16T21:56:59.836Z,6.57
2023-03-16T21:59:32.750Z,6.00
2023-03-16T22:02:18.078Z,5.90
2023-03-16T22:04:51.795Z,6.18
2023-03-16T22:07:26.291Z,6.43
2023-03-16T22:09:59.110Z,5.72
2023-03-16T22:12:32.044Z,5.78
2023-03-16T22:15:05.834Z,5.40
2023-03-16T22:17:39.246Z,5.70
2023-03-16T22:20:18.525Z,6.10
2023-03-16T22:22:53.397Z,4.95
2023-03-16T22:25:28.078Z,4.93
2023-03-16T22:28:01.185Z,5.05
2023-03-16T22:30:34.269Z,5.82
2023-03-16T22:33:07.543Z,5.15
2023-03-16T22:35:40.743Z,5.40
2023-03-16T22:38:16.544Z,6.15
2023-03-16T22:40:50.431Z,5.47
2023-03-16T22:43:29.584Z,6.88
2023-03-16T22:46:03.077Z,5.90
2023-03-16T22:48:36.141Z,5.82
2023-03-16T22:51:19.619Z,4.85
2023-03-16T22:53:56.794Z,4.88
2023-03-16T22:56:31.355Z,4.93
2023-03-16T22:59:06.565Z,6.15
2023-03-16T23:01:41.899Z,5.05
2023-03-16T23:04:16.121Z,5.13
2023-03-16T23:06:52.657Z,5.57
2023-03-16T23:09:27.096Z,5.07
2023-03-16T23:12:01.648Z,4.88
2023-03-16T23:14:38.134Z,5.00
2023-03-16T23:17:18.026Z,5.22
2023-03-16T23:19:51.936Z,4.97
2023-03-16T23:22:24.813Z,5.55
2023-03-16T23:24:59.453Z,5.35
2023-03-16T23:27:32.337Z,6.00
2023-03-16T23:30:16.386Z,6.07
2023-03-16T23:32:50.659Z,5.43
2023-03-16T23:35:25.630Z,5.15
2023-03-16T23:37:59.738Z,5.03
2023-03-16T23:40:38.857Z,5.70
2023-03-16T23:43:11.851Z,5.28
2023-03-16T23:45:47.946Z,5.53
2023-03-16T23:48:23.594Z,4.90
2023-03-16T23:50:57.578Z,6.10
2023-03-16T23:53:31.319Z,5.43
2023-03-16T23:56:10.809Z,5.15
2023-03-16T23:58:43.746Z,5.47
